Latest Weather Observations for Snowtown

IDS60801

Issued at 6:02 pm CST Sunday 24 September 2017 (issued every 30 minutes, with the page automatically refreshed every 10 minutes)

About weather observations | Map of weather stations | Latest weather observations for SA | Other Formats
Station Details ID: 021133 Name: RAYVILLE PARK Lat: -33.77 Lon: 138.22 Height: 109.1 m
Data from the previous 72 hours. | See also: Recent months at Snowtown
Date/Time
CST
Temp
°C
App
Temp
°C
Dew
Point
°C
Rel
Hum
%
Delta-T
°C
Wind Press
QNH
hPa
Press
MSL
hPa
Rain since
9am
mm
Dir  Spd
km/h
Gust
km/h
Spd
kts
Gust
kts
24/06:00pm 13.7 8.6 4.3 53 4.3 SW 20 32 11 17 1007.8 1007.8 0.0
24/05:30pm 15.2 9.1 4.6 49 5.0 WSW 26 39 14 21 1007.4 1007.4 0.0
24/05:00pm 16.7 10.9 4.4 44 5.8 WSW 24 35 13 19 1007.1 1007.1 0.0
24/04:30pm 17.6 11.0 4.2 41 6.4 WSW 28 46 15 25 1006.8 1006.8 0.0
24/04:00pm 18.2 11.1 3.7 38 6.8 WSW 30 41 16 22 1006.6 1006.6 0.0
24/03:30pm 18.9 12.2 3.9 37 7.2 W 28 37 15 20 1006.4 1006.4 0.0
24/03:00pm 18.9 11.9 4.3 38 7.0 WSW 30 50 16 27 1006.3 1006.3 0.0
24/02:30pm 19.5 12.3 5.2 39 7.0 W 32 50 17 27 1006.3 1006.3 0.0
24/02:10pm 19.8 13.4 5.1 38 7.2 WNW 28 46 15 25 1006.2 1006.2 0.0
24/02:00pm 18.9 12.0 4.7 39 6.9 WNW 30 44 16 24 1006.3 1006.3 0.0
24/01:30pm 19.1 12.8 5.6 41 6.7 WNW 28 41 15 22 1006.5 1006.5 0.0
24/01:00pm 18.6 11.9 5.5 42 6.4 WNW 30 41 16 22 1006.7 1006.7 0.0
24/12:30pm 18.7 12.7 7.2 47 5.9 WNW 28 43 15 23 1007.0 1007.0 0.0
24/12:00pm 18.6 12.6 8.6 52 5.2 NW 30 48 16 26 1007.3 1007.3 0.0
24/11:53am 17.8 11.8 7.0 49 5.4 WNW 28 48 15 26 1007.3 1007.3 0.0
24/11:30am 17.4 11.0 6.9 50 5.3 WNW 30 41 16 22 1007.5 1007.5 0.0
24/11:01am 16.6 10.7 7.5 55 4.6 NW 28 46 15 25 1007.6 1007.6 0.0
24/11:00am 16.7 10.4 7.4 54 4.7 NW 30 46 16 25 1007.6 1007.6 0.0
24/10:42am 17.0 10.7 7.6 54 4.8 WNW 30 48 16 26 1007.7 1007.7 0.0
24/10:30am 15.8 9.4 6.8 55 4.5 WNW 30 46 16 25 1007.8 1007.8 0.0
24/10:15am 16.3 10.0 7.5 56 4.4 WNW 30 50 16 27 1007.7 1007.7 0.0
24/10:00am 15.2 8.1 6.5 56 4.2 NW 33 48 18 26 1007.8 1007.8 0.0
24/09:30am 15.5 9.3 8.0 61 3.8 WNW 30 41 16 22 1007.6 1007.6 0.0
24/09:00am 14.9 8.3 7.9 63 3.5 NW 32 52 17 28 1007.5 1007.5 0.0
24/08:56am 15.4 9.6 7.9 61 3.8 NW 28 48 15 26 1007.5 1007.5 0.0
24/08:30am 14.8 8.9 9.0 68 3.0 WNW 30 43 16 23 1007.4 1007.4 0.0
24/08:00am 13.8 7.9 9.0 73 2.4 NW 30 43 16 23 1007.3 1007.3 0.0
24/07:30am 11.9 7.9 8.9 82 1.5 NW 20 30 11 16 1007.0 1007.0 0.0
24/07:00am 10.3 7.1 8.6 89 0.8 NW 15 20 8 11 1006.6 1006.6 0.0
24/06:30am 9.6 6.0 8.2 91 0.7 NW 17 24 9 13 1006.3 1006.3 0.0
24/06:00am 9.6 5.5 7.9 89 0.8 NW 19 24 10 13 1006.0 1006.0 0.0
24/05:30am 9.9 5.3 8.2 89 0.8 NW 22 28 12 15 1005.6 1005.6 0.0
24/05:00am 10.4 6.2 8.3 87 1.0 WNW 20 28 11 15 1005.4 1005.3 0.0
24/04:30am 10.5 6.3 8.4 87 1.0 WNW 20 28 11 15 1005.2 1005.1 0.0
24/04:00am 10.8 6.7 8.6 86 1.1 WNW 20 30 11 16 1005.0 1004.9 0.0
24/03:30am 11.1 6.6 8.5 84 1.3 NW 22 32 12 17 1005.0 1004.9 0.0
24/03:00am 10.7 6.7 8.3 85 1.2 NW 19 26 10 14 1005.0 1004.9 0.0
24/02:30am 10.5 6.8 7.9 84 1.3 NW 17 24 9 13 1005.2 1005.1 0.0
24/02:00am 9.7 5.8 7.0 83 1.3 NW 17 20 9 11 1005.2 1005.1 0.0
24/01:30am 9.9 5.8 6.4 79 1.6 NW 17 20 9 11 1005.2 1005.1 0.0
24/01:00am 12.5 7.9 6.3 66 3.0 WNW 20 26 11 14 1005.6 1005.6 0.0
24/12:30am 13.2 7.6 5.6 60 3.6 WNW 24 32 13 17 1005.7 1005.7 0.0
24/12:00am 13.5 7.9 5.4 58 3.8 WNW 24 33 13 18 1005.7 1005.7 0.0
 
Date/Time
CST
Temp
°C
App
Temp
°C
Dew
Point
°C
Rel
Hum
%
Delta-T
°C
Wind Press
QNH
hPa
Press
MSL
hPa
Rain since
9am
mm
Dir  Spd
km/h
Gust
km/h
Spd
kts
Gust
kts
23/11:30pm 14.0 8.0 5.4 56 4.1 WNW 26 41 14 22 1005.9 1005.9 0.0
23/11:00pm 11.1 6.9 8.3 83 1.4 NW 20 32 11 17 1006.1 1006.1 0.0
23/10:30pm 10.2 6.5 7.8 85 1.2 NNW 17 22 9 12 1005.9 1005.9 0.0
23/10:00pm 12.7 8.6 7.8 72 2.4 WNW 19 24 10 13 1006.2 1006.2 0.0
23/09:30pm 13.4 8.0 7.8 69 2.8 W 26 32 14 17 1006.5 1006.5 0.0
23/09:00pm 13.4 8.4 8.0 70 2.7 W 24 32 13 17 1006.4 1006.4 0.0
23/08:30pm 13.8 8.1 8.4 70 2.7 W 28 35 15 19 1005.9 1005.9 0.0
23/08:00pm 13.1 9.0 8.8 75 2.2 WSW 20 28 11 15 1005.6 1005.6 0.0
23/07:30pm 13.1 9.0 8.6 74 2.3 WSW 20 26 11 14 1005.0 1004.9 0.0
23/07:00pm 13.2 9.4 8.9 75 2.2 WSW 19 26 10 14 1004.4 1004.3 0.0
23/06:30pm 13.9 9.9 8.3 69 2.8 WSW 19 22 10 12 1004.2 1004.1 0.0
23/06:00pm 16.1 11.4 7.8 58 4.2 WSW 22 32 12 17 1003.9 1003.8 0.0
23/05:30pm 17.7 12.2 7.7 52 5.1 WSW 26 35 14 19 1003.7 1003.6 0.0
23/05:00pm 18.9 13.0 7.4 47 5.9 WSW 28 41 15 22 1003.3 1003.2 0.0
23/04:30pm 19.7 12.2 6.4 42 6.7 WSW 35 46 19 25 1002.9 1002.9 0.0
23/04:00pm 20.5 13.8 7.5 43 6.7 WSW 32 46 17 25 1002.5 1002.5 0.0
23/03:30pm 21.1 13.4 7.0 40 7.3 WSW 37 48 20 26 1002.3 1002.3 0.0
23/03:19pm 21.7 14.2 6.4 37 7.8 W 35 54 19 29 1002.2 1002.2 0.0
23/03:00pm 22.1 14.4 5.5 34 8.4 W 35 48 19 26 1002.0 1002.0 0.0
23/02:30pm 22.3 14.3 5.7 34 8.4 W 37 56 20 30 1001.9 1001.9 0.0
23/02:25pm 22.4 14.4 5.8 34 8.4 W 37 56 20 30 1001.8 1001.8 0.0
23/02:00pm 22.7 15.4 5.6 33 8.6 W 33 50 18 27 1001.8 1001.8 0.0
23/01:30pm 22.9 15.2 7.1 36 8.3 W 37 56 20 30 1001.6 1001.6 0.0
23/01:00pm 23.1 15.5 7.6 37 8.1 W 37 59 20 32 1001.3 1001.3 0.0
23/12:30pm 23.6 16.0 9.2 40 7.8 W 39 57 21 31 1000.9 1000.9 0.0
23/12:00pm 24.3 16.5 6.6 32 9.2 WNW 37 56 20 30 1000.5 1000.5 0.0
23/11:35am 24.6 16.3 5.9 30 9.6 NW 39 57 21 31 1000.3 1000.3 0.0
23/11:30am 24.8 17.5 7.0 32 9.4 NW 35 50 19 27 1000.2 1000.2 0.0
23/11:00am 23.7 18.1 10.0 42 7.5 NW 30 43 16 23 1000.0 1000.0 0.0
23/10:30am 22.2 16.5 11.0 49 6.3 NW 32 39 17 21 1000.0 1000.0 0.0
23/10:00am 21.2 15.9 13.1 60 4.6 NW 33 44 18 24 1000.2 1000.2 0.0
23/09:30am 20.5 15.3 12.7 61 4.5 NW 32 39 17 21 999.6 999.6 0.0
23/09:00am 19.0 13.2 11.6 62 4.1 NW 33 43 18 23 999.2 999.2 0.0
23/08:30am 20.5 16.1 10.3 52 5.6 WNW 24 33 13 18 998.6 998.6 0.0
23/08:00am 19.3 14.0 10.0 55 5.0 WNW 28 39 15 21 998.1 998.1 0.0
23/07:30am 17.1 10.4 7.2 52 5.0 NW 32 39 17 21 997.3 997.2 0.0
23/07:00am 16.8 10.8 6.9 52 4.9 NW 28 37 15 20 996.3 996.2 0.0
23/06:30am 16.4 11.0 6.5 52 4.9 NW 24 32 13 17 996.0 995.9 0.0
23/06:21am 14.3 11.4 8.0 66 3.2 NNW 13 32 7 17 996.2 996.1 0.0
23/06:00am 8.1 6.6 5.0 81 1.4 WSW 2 9 1 5 995.6 995.5 0.0
23/05:30am 9.5 6.7 5.3 75 1.9 N 9 13 5 7 995.7 995.6 0.0
23/05:00am 11.3 8.4 4.7 64 3.0 NE 9 15 5 8 995.6 995.5 0.0
23/04:30am 15.4 10.5 4.2 47 5.3 NE 19 22 10 12 995.6 995.5 0.0
23/04:00am 18.1 14.2 3.6 38 6.8 ESE 13 22 7 12 995.7 995.6 0.0
23/03:44am 19.8 16.5 4.7 37 7.3 NE 11 28 6 15 996.6 996.5 0.0
23/03:30am 13.7 9.4 7.0 64 3.3 S 19 35 10 19 996.9 996.8 0.0
23/03:00am 10.7 7.8 6.3 74 2.1 N 11 13 6 7 996.3 996.2 0.0
23/02:30am 10.5 7.5 7.9 84 1.3 NNW 13 19 7 10 996.9 996.8 0.0
23/02:00am 10.0 6.4 8.3 89 0.8 NNW 17 24 9 13 997.6 997.5 0.0
23/01:30am 9.2 6.2 7.8 91 0.7 WSW 13 15 7 8 998.7 998.7 0.0
23/01:00am 10.0 9.6 8.4 90 0.8 CALM 0 2 0 1 999.9 999.9 0.0
23/12:30am 10.3 9.1 8.2 87 1.0 WSW 4 7 2 4 1001.3 1001.3 0.0
23/12:00am 11.1 7.2 8.8 86 1.2 E 19 22 10 12 1001.7 1001.7 0.0
 
Date/Time
CST
Temp
°C
App
Temp
°C
Dew
Point
°C
Rel
Hum
%
Delta-T
°C
Wind Press
QNH
hPa
Press
MSL
hPa
Rain since
9am
mm
Dir  Spd
km/h
Gust
km/h
Spd
kts
Gust
kts
22/11:30pm 10.4 8.4 8.5 88 0.9 E 9 15 5 8 1002.0 1002.0 0.0
22/11:00pm 11.1 9.1 8.8 86 1.1 E 9 11 5 6 1002.5 1002.5 0.0
22/10:30pm 10.6 10.3 8.5 87 1.0 CALM 0 0 0 0 1002.6 1002.6 0.0
22/10:00pm 12.1 11.6 7.8 75 2.1 CALM 0 11 0 6 1002.9 1002.9 0.0
22/09:30pm 14.6 11.9 8.8 68 3.0 WSW 13 15 7 8 1002.9 1002.9 0.0
22/09:00pm 15.1 11.6 8.8 66 3.2 WSW 17 20 9 11 1002.5 1002.5 0.0
22/08:30pm 15.4 12.6 6.9 57 4.2 SW 11 17 6 9 1002.6 1002.6 0.0
22/08:00pm 15.3 12.0 6.6 56 4.3 NNE 13 24 7 13 1002.4 1002.4 0.0
22/07:30pm 16.1 13.0 7.3 56 4.4 N 13 15 7 8 1002.2 1002.2 0.0
22/07:00pm 16.6 13.2 7.8 56 4.5 NW 15 17 8 9 1002.0 1002.0 0.0
22/06:30pm 18.5 14.7 7.6 49 5.6 NW 17 19 9 10 1002.0 1002.0 0.0
22/06:00pm 19.5 16.6 9.7 53 5.3 NW 15 17 8 9 1002.0 1002.0 0.0
22/05:30pm 22.8 21.0 12.1 51 6.1 NW 13 15 7 8 1002.1 1002.1 0.0
22/05:00pm 25.4 24.1 12.6 45 7.4 NW 11 13 6 7 1002.0 1002.0 0.0
22/04:30pm 28.0 23.4 3.7 21 12.3 NNW 17 20 9 11 1002.2 1002.2 0.0
22/04:00pm 30.8 25.0 2.1 16 14.3 NW 22 33 12 18 1002.3 1002.3 0.0
22/03:30pm 31.0 24.7 1.4 15 14.7 NW 24 37 13 20 1002.5 1002.5 0.0
22/03:00pm 31.0 25.9 3.9 18 14.0 NNW 20 32 11 17 1002.9 1002.9 0.0
22/02:30pm 30.8 25.6 5.3 20 13.5 NW 22 33 12 18 1003.4 1003.3 0.0
22/02:00pm 30.4 24.8 3.4 18 13.8 NW 22 33 12 18 1003.8 1003.7 0.0
22/01:30pm 30.2 23.6 4.0 19 13.5 NW 28 41 15 22 1004.0 1003.9 0.0
22/01:00pm 30.0 23.2 5.3 21 13.0 NW 30 39 16 21 1004.3 1004.2 0.0
22/12:30pm 30.0 23.5 4.6 20 13.2 NNW 28 39 15 21 1004.4 1004.3 0.0
22/12:00pm 29.6 23.5 2.8 18 13.5 NNW 24 35 13 19 1004.7 1004.6 0.0
22/11:30am 28.1 24.4 9.4 31 10.4 N 19 24 10 13 1005.2 1005.1 0.0
22/11:00am 26.0 22.2 8.9 34 9.3 N 19 24 10 13 1005.3 1005.2 0.0
22/10:30am 24.1 21.0 10.4 42 7.6 NNE 17 24 9 13 1006.0 1006.0 0.0
22/10:00am 22.0 18.6 11.1 50 6.1 NNE 20 26 11 14 1006.7 1006.7 0.0
22/09:30am 19.7 15.2 10.1 54 5.2 NNE 24 30 13 16 1007.4 1007.4 0.0
22/09:00am 18.1 14.7 11.4 65 3.7 N 20 30 11 16 1007.6 1007.6 0.0
22/08:30am 15.8 13.1 11.8 77 2.2 NNE 17 22 9 12 1007.7 1007.7 0.0
22/08:00am 13.6 11.3 11.7 88 1.0 WSW 15 19 8 10 1008.1 1008.1 0.0
22/07:30am 11.9 10.6 11.1 95 0.4 WSW 9 13 5 7 1008.3 1008.3 0.0
22/07:00am 9.2 6.4 8.6 96 0.3 WSW 13 17 7 9 1008.2 1008.2 0.0
22/06:30am 6.7 4.1 6.0 95 0.3 WSW 9 13 5 7 1008.2 1008.2 0.0
22/06:00am 6.3 3.2 5.4 94 0.4 WSW 11 13 6 7 1008.0 1008.0 0.0
22/05:30am 7.6 4.4 6.7 94 0.4 WSW 13 15 7 8 1008.0 1008.0 0.0
22/05:00am 8.1 5.1 7.5 96 0.3 WSW 13 17 7 9 1007.8 1007.8 0.0
22/04:30am 7.8 5.1 7.4 97 0.2 WSW 11 15 6 8 1007.8 1007.8 0.0
22/04:00am 7.6 4.5 7.2 97 0.2 SW 13 15 7 8 1008.0 1008.0 0.0
22/03:30am 6.6 4.0 6.0 96 0.3 WSW 9 11 5 6 1008.2 1008.2 0.0
22/03:00am 7.2 4.3 6.6 96 0.3 WSW 11 13 6 7 1008.8 1008.8 0.0
22/02:30am 7.8 5.8 7.2 96 0.3 WSW 7 9 4 5 1008.9 1008.9 0.0
22/02:00am 8.7 6.6 8.1 96 0.3 SW 9 13 5 7 1009.4 1009.4 0.0
22/01:30am 10.1 7.6 9.6 97 0.3 SW 13 19 7 10 1009.8 1009.8 0.0
22/01:00am 9.5 6.4 9.0 97 0.2 SW 15 17 8 9 1010.3 1010.3 0.0
22/12:30am 7.5 5.5 6.9 96 0.3 SW 7 11 4 6 1010.9 1010.9 0.0
22/12:00am 7.0 5.0 6.3 95 0.3 SW 6 7 3 4 1011.0 1011.0 0.0
 
Date/Time
CST
Temp
°C
App
Temp
°C
Dew
Point
°C
Rel
Hum
%
Delta-T
°C
Wind Press
QNH
hPa
Press
MSL
hPa
Rain since
9am
mm
Dir  Spd
km/h
Gust
km/h
Spd
kts
Gust
kts
21/11:30pm 7.5 5.4 6.8 95 0.3 SW 7 9 4 5 1011.2 1011.2 0.0
21/11:00pm 8.4 6.5 7.5 94 0.4 SW 7 9 4 5 1011.2 1011.2 0.0
21/10:30pm 9.0 6.9 8.2 95 0.4 SW 9 13 5 7 1011.4 1011.4 0.0
21/10:00pm 9.5 7.1 8.7 95 0.4 SW 11 13 6 7 1011.3 1011.3 0.0
21/09:30pm 9.7 7.0 8.9 95 0.4 SW 13 15 7 8 1011.2 1011.2 0.0
21/09:00pm 9.7 7.0 8.8 94 0.4 SW 13 15 7 8 1011.4 1011.4 0.0
21/08:30pm 9.9 8.3 8.7 92 0.6 SW 7 9 4 5 1011.3 1011.3 0.0
21/08:00pm 10.8 9.4 9.7 93 0.6 SW 7 9 4 5 1011.1 1011.1 0.0
21/07:30pm 11.7 9.4 10.4 92 0.7 SW 13 17 7 9 1010.9 1010.9 0.0
21/07:00pm 12.4 10.3 11.1 92 0.7 SW 13 19 7 10 1010.5 1010.5 0.0
21/06:30pm 13.4 11.4 11.5 88 1.0 SSW 13 15 7 8 1010.3 1010.3 0.0

Other Formats:

Comma delimited format used in spreadsheet applications
http://www.bom.gov.au/fwo/IDS60801/IDS60801.95670.axf

JavaScript Object Notation format (JSON) in row-major order
http://www.bom.gov.au/fwo/IDS60801/IDS60801.95670.json